sensor_id;sensor_type;location;lat;lon;timestamp;P1;durP1;ratioP1;P2;durP2;ratioP2
23590;SDS011;11973;52.098;7.582;2022-12-07T00:01:18;24.38;;;20.65;;
23590;SDS011;11973;52.098;7.582;2022-12-07T00:03:49;21.95;;;19.75;;
23590;SDS011;11973;52.098;7.582;2022-12-07T00:06:16;21.77;;;19.55;;
23590;SDS011;11973;52.098;7.582;2022-12-07T00:08:42;20.58;;;18.35;;
23590;SDS011;11973;52.098;7.582;2022-12-07T00:11:12;20.02;;;18.02;;
23590;SDS011;11973;52.098;7.582;2022-12-07T00:13:43;19.73;;;17.40;;
23590;SDS011;11973;52.098;7.582;2022-12-07T00:18:36;19.15;;;17.33;;
23590;SDS011;11973;52.098;7.582;2022-12-07T00:21:03;18.88;;;16.88;;
23590;SDS011;11973;52.098;7.582;2022-12-07T00:23:30;18.85;;;17.05;;
23590;SDS011;11973;52.098;7.582;2022-12-07T00:26:02;19.13;;;17.27;;
23590;SDS011;11973;52.098;7.582;2022-12-07T00:28:29;20.67;;;17.25;;
23590;SDS011;11973;52.098;7.582;2022-12-07T00:30:59;19.08;;;17.17;;
23590;SDS011;11973;52.098;7.582;2022-12-07T00:33:33;17.63;;;15.93;;
23590;SDS011;11973;52.098;7.582;2022-12-07T00:36:00;17.30;;;15.45;;
23590;SDS011;11973;52.098;7.582;2022-12-07T00:38:28;16.20;;;14.77;;
23590;SDS011;11973;52.098;7.582;2022-12-07T00:41:00;17.13;;;15.52;;
23590;SDS011;11973;52.098;7.582;2022-12-07T00:43:28;17.00;;;15.25;;
23590;SDS011;11973;52.098;7.582;2022-12-07T00:45:54;16.08;;;14.60;;
23590;SDS011;11973;52.098;7.582;2022-12-07T00:48:20;15.75;;;14.45;;
23590;SDS011;11973;52.098;7.582;2022-12-07T00:50:47;14.93;;;13.50;;
23590;SDS011;11973;52.098;7.582;2022-12-07T00:53:13;15.60;;;14.30;;
23590;SDS011;11973;52.098;7.582;2022-12-07T00:55:40;14.40;;;13.15;;
23590;SDS011;11973;52.098;7.582;2022-12-07T00:58:06;14.05;;;12.88;;
23590;SDS011;11973;52.098;7.582;2022-12-07T01:00:31;14.38;;;13.18;;
23590;SDS011;11973;52.098;7.582;2022-12-07T01:02:58;14.45;;;13.27;;
23590;SDS011;11973;52.098;7.582;2022-12-07T01:05:24;13.77;;;12.52;;
23590;SDS011;11973;52.098;7.582;2022-12-07T01:07:50;14.27;;;12.98;;
23590;SDS011;11973;52.098;7.582;2022-12-07T01:10:16;13.65;;;12.55;;
23590;SDS011;11973;52.098;7.582;2022-12-07T01:12:41;14.52;;;13.23;;
23590;SDS011;11973;52.098;7.582;2022-12-07T01:15:07;13.88;;;12.68;;
23590;SDS011;11973;52.098;7.582;2022-12-07T01:17:33;14.77;;;13.35;;
23590;SDS011;11973;52.098;7.582;2022-12-07T01:19:59;14.82;;;13.57;;
23590;SDS011;11973;52.098;7.582;2022-12-07T01:22:25;14.07;;;12.75;;
23590;SDS011;11973;52.098;7.582;2022-12-07T01:24:51;15.02;;;13.48;;
23590;SDS011;11973;52.098;7.582;2022-12-07T01:27:16;14.07;;;12.82;;
23590;SDS011;11973;52.098;7.582;2022-12-07T01:29:42;14.57;;;13.27;;
23590;SDS011;11973;52.098;7.582;2022-12-07T01:32:08;14.48;;;13.18;;
23590;SDS011;11973;52.098;7.582;2022-12-07T01:34:34;14.35;;;12.95;;
23590;SDS011;11973;52.098;7.582;2022-12-07T01:37:00;14.25;;;13.02;;
23590;SDS011;11973;52.098;7.582;2022-12-07T01:39:25;14.50;;;13.10;;
23590;SDS011;11973;52.098;7.582;2022-12-07T01:41:52;14.25;;;12.98;;
23590;SDS011;11973;52.098;7.582;2022-12-07T01:46:47;16.08;;;14.48;;
23590;SDS011;11973;52.098;7.582;2022-12-07T01:49:42;16.00;;;14.32;;
23590;SDS011;11973;52.098;7.582;2022-12-07T01:54:54;16.02;;;14.35;;
23590;SDS011;11973;52.098;7.582;2022-12-07T01:57:24;17.42;;;14.63;;
23590;SDS011;11973;52.098;7.582;2022-12-07T01:59:51;17.73;;;14.43;;
23590;SDS011;11973;52.098;7.582;2022-12-07T02:02:19;17.38;;;14.40;;
23590;SDS011;11973;52.098;7.582;2022-12-07T02:04:57;16.25;;;14.57;;
23590;SDS011;11973;52.098;7.582;2022-12-07T02:07:25;19.85;;;15.27;;
23590;SDS011;11973;52.098;7.582;2022-12-07T02:09:52;17.98;;;14.88;;
23590;SDS011;11973;52.098;7.582;2022-12-07T02:12:18;17.63;;;15.20;;
23590;SDS011;11973;52.098;7.582;2022-12-07T02:14:45;18.10;;;14.50;;
23590;SDS011;11973;52.098;7.582;2022-12-07T02:19:59;16.00;;;14.35;;
23590;SDS011;11973;52.098;7.582;2022-12-07T02:22:42;16.33;;;14.40;;
23590;SDS011;11973;52.098;7.582;2022-12-07T02:28:37;20.38;;;13.98;;
23590;SDS011;11973;52.098;7.582;2022-12-07T02:31:17;17.33;;;14.50;;
23590;SDS011;11973;52.098;7.582;2022-12-07T02:34:05;16.60;;;14.07;;
23590;SDS011;11973;52.098;7.582;2022-12-07T02:36:46;15.10;;;13.70;;
23590;SDS011;11973;52.098;7.582;2022-12-07T02:39:28;15.80;;;14.13;;
23590;SDS011;11973;52.098;7.582;2022-12-07T02:42:14;14.50;;;13.02;;
23590;SDS011;11973;52.098;7.582;2022-12-07T02:44:43;14.65;;;13.13;;
23590;SDS011;11973;52.098;7.582;2022-12-07T02:47:11;14.23;;;12.40;;
23590;SDS011;11973;52.098;7.582;2022-12-07T02:49:39;16.83;;;12.80;;
23590;SDS011;11973;52.098;7.582;2022-12-07T02:52:05;14.00;;;12.57;;
23590;SDS011;11973;52.098;7.582;2022-12-07T02:54:31;15.13;;;13.13;;
23590;SDS011;11973;52.098;7.582;2022-12-07T03:10:54;14.63;;;12.60;;
23590;SDS011;11973;52.098;7.582;2022-12-07T03:16:27;15.80;;;11.50;;
23590;SDS011;11973;52.098;7.582;2022-12-07T03:19:19;13.50;;;11.95;;
23590;SDS011;11973;52.098;7.582;2022-12-07T03:21:58;15.65;;;11.88;;
23590;SDS011;11973;52.098;7.582;2022-12-07T03:24:29;15.73;;;11.38;;
23590;SDS011;11973;52.098;7.582;2022-12-07T03:27:03;11.65;;;10.45;;
23590;SDS011;11973;52.098;7.582;2022-12-07T03:29:44;16.35;;;11.45;;
23590;SDS011;11973;52.098;7.582;2022-12-07T03:32:21;15.32;;;11.52;;
23590;SDS011;11973;52.098;7.582;2022-12-07T03:34:54;13.95;;;11.57;;
23590;SDS011;11973;52.098;7.582;2022-12-07T03:37:45;15.95;;;11.23;;
23590;SDS011;11973;52.098;7.582;2022-12-07T03:42:53;14.93;;;10.63;;
23590;SDS011;11973;52.098;7.582;2022-12-07T03:45:22;15.38;;;10.63;;
23590;SDS011;11973;52.098;7.582;2022-12-07T03:48:00;14.13;;;10.30;;
23590;SDS011;11973;52.098;7.582;2022-12-07T03:53:09;10.95;;;9.88;;
23590;SDS011;11973;52.098;7.582;2022-12-07T03:55:41;12.63;;;9.75;;
23590;SDS011;11973;52.098;7.582;2022-12-07T03:58:10;13.73;;;10.15;;
23590;SDS011;11973;52.098;7.582;2022-12-07T04:00:38;13.27;;;9.52;;
23590;SDS011;11973;52.098;7.582;2022-12-07T04:03:06;10.90;;;8.93;;
23590;SDS011;11973;52.098;7.582;2022-12-07T04:05:32;12.95;;;9.02;;
23590;SDS011;11973;52.098;7.582;2022-12-07T04:07:57;12.63;;;9.32;;
23590;SDS011;11973;52.098;7.582;2022-12-07T04:10:23;9.18;;;8.35;;
23590;SDS011;11973;52.098;7.582;2022-12-07T04:12:49;9.07;;;8.30;;
23590;SDS011;11973;52.098;7.582;2022-12-07T04:15:14;10.00;;;8.63;;
23590;SDS011;11973;52.098;7.582;2022-12-07T04:17:40;11.25;;;8.63;;
23590;SDS011;11973;52.098;7.582;2022-12-07T04:20:06;9.50;;;8.07;;
23590;SDS011;11973;52.098;7.582;2022-12-07T04:22:33;16.08;;;8.32;;
23590;SDS011;11973;52.098;7.582;2022-12-07T04:24:58;10.57;;;7.97;;
23590;SDS011;11973;52.098;7.582;2022-12-07T04:27:24;11.43;;;7.65;;
23590;SDS011;11973;52.098;7.582;2022-12-07T04:29:50;9.63;;;7.07;;
23590;SDS011;11973;52.098;7.582;2022-12-07T04:32:16;11.15;;;6.53;;
23590;SDS011;11973;52.098;7.582;2022-12-07T04:34:41;6.97;;;6.28;;
23590;SDS011;11973;52.098;7.582;2022-12-07T04:37:07;7.00;;;6.35;;
23590;SDS011;11973;52.098;7.582;2022-12-07T04:39:33;8.40;;;6.78;;
23590;SDS011;11973;52.098;7.582;2022-12-07T04:41:59;9.18;;;6.18;;
23590;SDS011;11973;52.098;7.582;2022-12-07T04:44:26;6.57;;;5.95;;
23590;SDS011;11973;52.098;7.582;2022-12-07T04:46:52;10.05;;;5.88;;
23590;SDS011;11973;52.098;7.582;2022-12-07T04:49:19;6.65;;;6.05;;
23590;SDS011;11973;52.098;7.582;2022-12-07T04:51:45;8.43;;;5.85;;
23590;SDS011;11973;52.098;7.582;2022-12-07T04:54:12;6.88;;;5.55;;
23590;SDS011;11973;52.098;7.582;2022-12-07T04:56:39;8.18;;;5.80;;
23590;SDS011;11973;52.098;7.582;2022-12-07T04:59:04;6.05;;;5.50;;
23590;SDS011;11973;52.098;7.582;2022-12-07T05:01:30;7.30;;;5.07;;
23590;SDS011;11973;52.098;7.582;2022-12-07T05:03:57;5.28;;;4.78;;
23590;SDS011;11973;52.098;7.582;2022-12-07T05:06:23;10.40;;;5.13;;
23590;SDS011;11973;52.098;7.582;2022-12-07T05:08:49;5.57;;;4.43;;
23590;SDS011;11973;52.098;7.582;2022-12-07T05:11:15;8.43;;;4.50;;
23590;SDS011;11973;52.098;7.582;2022-12-07T05:14:00;5.50;;;4.28;;
23590;SDS011;11973;52.098;7.582;2022-12-07T06:15:49;3.40;;;2.17;;
23590;SDS011;11973;52.098;7.582;2022-12-07T06:18:15;5.32;;;2.10;;
23590;SDS011;11973;52.098;7.582;2022-12-07T06:20:41;4.97;;;2.08;;
23590;SDS011;11973;52.098;7.582;2022-12-07T06:23:06;4.78;;;2.17;;
23590;SDS011;11973;52.098;7.582;2022-12-07T06:25:32;1.80;;;1.70;;
23590;SDS011;11973;52.098;7.582;2022-12-07T06:27:58;4.50;;;2.08;;
23590;SDS011;11973;52.098;7.582;2022-12-07T06:30:23;7.40;;;1.98;;
23590;SDS011;11973;52.098;7.582;2022-12-07T06:32:49;5.68;;;2.10;;
23590;SDS011;11973;52.098;7.582;2022-12-07T06:35:15;5.78;;;2.08;;
23590;SDS011;11973;52.098;7.582;2022-12-07T06:37:41;5.80;;;1.98;;
23590;SDS011;11973;52.098;7.582;2022-12-07T06:40:06;4.97;;;2.00;;
23590;SDS011;11973;52.098;7.582;2022-12-07T06:42:33;4.88;;;2.60;;
23590;SDS011;11973;52.098;7.582;2022-12-07T06:44:58;7.55;;;2.30;;
23590;SDS011;11973;52.098;7.582;2022-12-07T06:47:24;4.00;;;2.45;;
23590;SDS011;11973;52.098;7.582;2022-12-07T06:49:49;5.95;;;2.22;;
23590;SDS011;11973;52.098;7.582;2022-12-07T06:52:15;6.03;;;2.15;;
23590;SDS011;11973;52.098;7.582;2022-12-07T06:54:41;6.95;;;2.50;;
23590;SDS011;11973;52.098;7.582;2022-12-07T06:57:06;4.35;;;2.05;;
23590;SDS011;11973;52.098;7.582;2022-12-07T06:59:32;3.17;;;2.10;;
23590;SDS011;11973;52.098;7.582;2022-12-07T07:01:58;9.10;;;2.90;;
23590;SDS011;11973;52.098;7.582;2022-12-07T07:04:23;5.25;;;2.45;;
23590;SDS011;11973;52.098;7.582;2022-12-07T07:06:49;6.85;;;2.28;;
23590;SDS011;11973;52.098;7.582;2022-12-07T07:09:15;8.00;;;2.35;;
23590;SDS011;11973;52.098;7.582;2022-12-07T07:11:41;6.50;;;2.72;;
23590;SDS011;11973;52.098;7.582;2022-12-07T07:14:06;4.25;;;2.13;;
23590;SDS011;11973;52.098;7.582;2022-12-07T07:16:32;6.00;;;2.55;;
23590;SDS011;11973;52.098;7.582;2022-12-07T07:18:58;7.13;;;2.40;;
23590;SDS011;11973;52.098;7.582;2022-12-07T07:21:23;5.97;;;2.17;;
23590;SDS011;11973;52.098;7.582;2022-12-07T07:23:49;5.13;;;2.25;;
23590;SDS011;11973;52.098;7.582;2022-12-07T07:26:15;2.10;;;1.90;;
23590;SDS011;11973;52.098;7.582;2022-12-07T07:28:40;3.70;;;2.15;;
23590;SDS011;11973;52.098;7.582;2022-12-07T07:31:06;3.17;;;1.85;;
23590;SDS011;11973;52.098;7.582;2022-12-07T07:33:32;4.68;;;1.88;;
23590;SDS011;11973;52.098;7.582;2022-12-07T07:35:57;4.78;;;1.85;;
23590;SDS011;11973;52.098;7.582;2022-12-07T07:38:23;6.20;;;1.75;;
23590;SDS011;11973;52.098;7.582;2022-12-07T07:40:49;4.50;;;2.03;;
23590;SDS011;11973;52.098;7.582;2022-12-07T07:43:14;3.30;;;1.85;;
23590;SDS011;11973;52.098;7.582;2022-12-07T07:45:40;8.18;;;1.80;;
23590;SDS011;11973;52.098;7.582;2022-12-07T07:48:06;2.47;;;1.83;;
23590;SDS011;11973;52.098;7.582;2022-12-07T07:50:31;3.45;;;1.90;;
23590;SDS011;11973;52.098;7.582;2022-12-07T07:52:57;5.32;;;1.80;;
23590;SDS011;11973;52.098;7.582;2022-12-07T07:55:23;5.20;;;1.88;;
23590;SDS011;11973;52.098;7.582;2022-12-07T07:57:49;4.85;;;1.52;;
23590;SDS011;11973;52.098;7.582;2022-12-07T08:00:15;6.85;;;1.38;;
23590;SDS011;11973;52.098;7.582;2022-12-07T08:02:42;3.88;;;1.38;;
23590;SDS011;11973;52.098;7.582;2022-12-07T08:05:08;4.40;;;1.70;;
23590;SDS011;11973;52.098;7.582;2022-12-07T08:07:35;5.13;;;2.00;;
23590;SDS011;11973;52.098;7.582;2022-12-07T08:10:01;2.45;;;1.27;;
23590;SDS011;11973;52.098;7.582;2022-12-07T08:12:27;6.10;;;2.00;;
23590;SDS011;11973;52.098;7.582;2022-12-07T08:14:53;6.60;;;2.03;;
23590;SDS011;11973;52.098;7.582;2022-12-07T08:17:18;4.43;;;1.77;;
23590;SDS011;11973;52.098;7.582;2022-12-07T08:19:44;7.65;;;2.20;;
23590;SDS011;11973;52.098;7.582;2022-12-07T08:22:10;6.50;;;2.30;;
23590;SDS011;11973;52.098;7.582;2022-12-07T08:24:35;5.93;;;2.30;;
23590;SDS011;11973;52.098;7.582;2022-12-07T08:27:01;7.40;;;2.22;;
23590;SDS011;11973;52.098;7.582;2022-12-07T08:29:28;3.17;;;2.10;;
23590;SDS011;11973;52.098;7.582;2022-12-07T08:31:54;3.40;;;1.90;;
23590;SDS011;11973;52.098;7.582;2022-12-07T08:34:20;3.85;;;2.47;;
23590;SDS011;11973;52.098;7.582;2022-12-07T08:36:45;7.78;;;2.72;;
23590;SDS011;11973;52.098;7.582;2022-12-07T08:39:11;7.20;;;2.15;;
23590;SDS011;11973;52.098;7.582;2022-12-07T08:41:37;7.05;;;2.50;;
23590;SDS011;11973;52.098;7.582;2022-12-07T08:44:02;4.75;;;2.33;;
23590;SDS011;11973;52.098;7.582;2022-12-07T08:49:12;4.05;;;2.03;;
23590;SDS011;11973;52.098;7.582;2022-12-07T08:51:41;4.50;;;2.25;;
23590;SDS011;11973;52.098;7.582;2022-12-07T08:54:09;7.80;;;2.83;;
23590;SDS011;11973;52.098;7.582;2022-12-07T08:56:39;5.15;;;2.63;;
23590;SDS011;11973;52.098;7.582;2022-12-07T08:59:06;4.82;;;2.17;;
23590;SDS011;11973;52.098;7.582;2022-12-07T09:01:32;4.00;;;2.05;;
23590;SDS011;11973;52.098;7.582;2022-12-07T09:03:58;6.72;;;2.60;;
23590;SDS011;11973;52.098;7.582;2022-12-07T09:06:23;2.00;;;1.77;;
23590;SDS011;11973;52.098;7.582;2022-12-07T09:08:51;2.20;;;1.63;;
23590;SDS011;11973;52.098;7.582;2022-12-07T09:11:19;5.88;;;1.67;;
23590;SDS011;11973;52.098;7.582;2022-12-07T09:13:45;4.43;;;1.98;;
23590;SDS011;11973;52.098;7.582;2022-12-07T09:16:11;4.38;;;1.92;;
23590;SDS011;11973;52.098;7.582;2022-12-07T09:18:36;6.38;;;1.80;;
23590;SDS011;11973;52.098;7.582;2022-12-07T09:21:03;2.50;;;1.52;;
23590;SDS011;11973;52.098;7.582;2022-12-07T09:23:29;3.78;;;1.70;;
23590;SDS011;11973;52.098;7.582;2022-12-07T09:25:58;3.15;;;1.50;;
23590;SDS011;11973;52.098;7.582;2022-12-07T09:28:27;5.10;;;2.05;;
23590;SDS011;11973;52.098;7.582;2022-12-07T09:30:53;3.97;;;1.58;;
23590;SDS011;11973;52.098;7.582;2022-12-07T09:33:19;2.90;;;1.60;;
23590;SDS011;11973;52.098;7.582;2022-12-07T09:35:45;5.43;;;1.48;;
23590;SDS011;11973;52.098;7.582;2022-12-07T09:38:12;4.75;;;2.05;;
23590;SDS011;11973;52.098;7.582;2022-12-07T09:40:38;5.25;;;1.40;;
23590;SDS011;11973;52.098;7.582;2022-12-07T09:43:04;1.60;;;1.40;;
23590;SDS011;11973;52.098;7.582;2022-12-07T09:45:36;5.68;;;1.25;;
23590;SDS011;11973;52.098;7.582;2022-12-07T09:48:03;4.80;;;1.65;;
23590;SDS011;11973;52.098;7.582;2022-12-07T09:50:29;3.65;;;1.45;;
23590;SDS011;11973;52.098;7.582;2022-12-07T09:53:06;3.22;;;1.50;;
23590;SDS011;11973;52.098;7.582;2022-12-07T09:55:35;3.45;;;1.42;;
23590;SDS011;11973;52.098;7.582;2022-12-07T09:58:02;2.97;;;1.27;;
23590;SDS011;11973;52.098;7.582;2022-12-07T10:00:29;2.33;;;0.90;;
23590;SDS011;11973;52.098;7.582;2022-12-07T10:02:55;4.53;;;1.15;;
23590;SDS011;11973;52.098;7.582;2022-12-07T10:05:30;2.67;;;1.00;;
23590;SDS011;11973;52.098;7.582;2022-12-07T10:08:01;2.40;;;1.20;;
23590;SDS011;11973;52.098;7.582;2022-12-07T10:10:32;2.67;;;1.00;;
23590;SDS011;11973;52.098;7.582;2022-12-07T10:13:07;5.32;;;1.20;;
23590;SDS011;11973;52.098;7.582;2022-12-07T10:24:05;1.17;;;1.05;;
23590;SDS011;11973;52.098;7.582;2022-12-07T10:29:21;3.85;;;1.10;;
23590;SDS011;11973;52.098;7.582;2022-12-07T10:31:55;4.30;;;1.05;;
23590;SDS011;11973;52.098;7.582;2022-12-07T10:34:27;1.75;;;1.15;;
23590;SDS011;11973;52.098;7.582;2022-12-07T10:39:41;3.20;;;1.10;;
23590;SDS011;11973;52.098;7.582;2022-12-07T10:42:21;3.03;;;1.17;;
23590;SDS011;11973;52.098;7.582;2022-12-07T10:45:08;2.90;;;1.05;;
23590;SDS011;11973;52.098;7.582;2022-12-07T10:50:59;1.25;;;0.82;;
23590;SDS011;11973;52.098;7.582;2022-12-07T10:58:56;2.80;;;1.02;;
23590;SDS011;11973;52.098;7.582;2022-12-07T11:01:46;1.77;;;1.50;;
23590;SDS011;11973;52.098;7.582;2022-12-07T11:12:47;4.78;;;1.30;;
23590;SDS011;11973;52.098;7.582;2022-12-07T11:15:10;4.95;;;1.30;;
23590;SDS011;11973;52.098;7.582;2022-12-07T11:17:53;3.58;;;1.05;;
23590;SDS011;11973;52.098;7.582;2022-12-07T11:22:58;3.83;;;1.40;;
23590;SDS011;11973;52.098;7.582;2022-12-07T11:29:06;2.83;;;1.17;;
23590;SDS011;11973;52.098;7.582;2022-12-07T11:31:18;2.13;;;1.38;;
23590;SDS011;11973;52.098;7.582;2022-12-07T11:33:53;3.22;;;1.27;;
23590;SDS011;11973;52.098;7.582;2022-12-07T11:36:36;1.38;;;0.88;;
23590;SDS011;11973;52.098;7.582;2022-12-07T11:41:43;1.92;;;1.20;;
23590;SDS011;11973;52.098;7.582;2022-12-07T11:46:48;3.33;;;1.20;;
23590;SDS011;11973;52.098;7.582;2022-12-07T11:54:54;2.67;;;1.15;;
23590;SDS011;11973;52.098;7.582;2022-12-07T11:57:41;1.05;;;0.90;;
23590;SDS011;11973;52.098;7.582;2022-12-07T12:02:44;2.47;;;0.95;;
23590;SDS011;11973;52.098;7.582;2022-12-07T12:05:22;2.25;;;1.10;;
23590;SDS011;11973;52.098;7.582;2022-12-07T12:07:52;3.13;;;0.95;;
23590;SDS011;11973;52.098;7.582;2022-12-07T12:21:34;3.30;;;1.17;;
23590;SDS011;11973;52.098;7.582;2022-12-07T12:24:02;2.05;;;0.80;;
23590;SDS011;11973;52.098;7.582;2022-12-07T12:26:48;3.20;;;1.27;;
23590;SDS011;11973;52.098;7.582;2022-12-07T12:29:27;3.05;;;1.35;;
23590;SDS011;11973;52.098;7.582;2022-12-07T12:33:00;3.20;;;1.40;;
23590;SDS011;11973;52.098;7.582;2022-12-07T12:37:45;2.90;;;1.55;;
23590;SDS011;11973;52.098;7.582;2022-12-07T12:45:26;2.20;;;1.00;;
23590;SDS011;11973;52.098;7.582;2022-12-07T12:50:29;2.83;;;1.02;;
23590;SDS011;11973;52.098;7.582;2022-12-07T12:55:27;2.75;;;1.08;;
23590;SDS011;11973;52.098;7.582;2022-12-07T13:00:47;3.25;;;1.08;;
23590;SDS011;11973;52.098;7.582;2022-12-07T13:03:34;2.90;;;1.48;;
23590;SDS011;11973;52.098;7.582;2022-12-07T13:08:50;2.97;;;0.98;;
23590;SDS011;11973;52.098;7.582;2022-12-07T13:11:29;3.15;;;1.25;;
23590;SDS011;11973;52.098;7.582;2022-12-07T13:17:02;2.08;;;1.27;;
23590;SDS011;11973;52.098;7.582;2022-12-07T13:20:39;1.63;;;1.05;;
23590;SDS011;11973;52.098;7.582;2022-12-07T13:24:57;2.92;;;1.10;;
23590;SDS011;11973;52.098;7.582;2022-12-07T13:27:25;2.08;;;1.17;;
23590;SDS011;11973;52.098;7.582;2022-12-07T13:29:52;0.95;;;0.95;;
23590;SDS011;11973;52.098;7.582;2022-12-07T13:32:25;2.78;;;1.02;;
23590;SDS011;11973;52.098;7.582;2022-12-07T13:34:52;4.72;;;1.35;;
23590;SDS011;11973;52.098;7.582;2022-12-07T13:37:27;2.80;;;1.30;;
23590;SDS011;11973;52.098;7.582;2022-12-07T13:39:56;4.47;;;1.52;;
23590;SDS011;11973;52.098;7.582;2022-12-07T13:42:31;5.65;;;1.50;;
23590;SDS011;11973;52.098;7.582;2022-12-07T13:44:59;2.90;;;1.55;;
23590;SDS011;11973;52.098;7.582;2022-12-07T13:53:07;1.73;;;1.58;;
23590;SDS011;11973;52.098;7.582;2022-12-07T13:55:43;2.78;;;1.48;;
23590;SDS011;11973;52.098;7.582;2022-12-07T13:58:10;5.97;;;1.55;;
23590;SDS011;11973;52.098;7.582;2022-12-07T14:00:36;2.25;;;1.50;;
23590;SDS011;11973;52.098;7.582;2022-12-07T14:05:37;5.57;;;1.73;;
23590;SDS011;11973;52.098;7.582;2022-12-07T14:08:05;2.67;;;1.27;;
23590;SDS011;11973;52.098;7.582;2022-12-07T14:10:33;2.38;;;1.25;;
23590;SDS011;11973;52.098;7.582;2022-12-07T14:16:00;4.53;;;1.60;;
23590;SDS011;11973;52.098;7.582;2022-12-07T14:18:30;3.63;;;1.80;;
23590;SDS011;11973;52.098;7.582;2022-12-07T14:21:03;3.95;;;1.50;;
23590;SDS011;11973;52.098;7.582;2022-12-07T14:23:29;4.90;;;1.65;;
23590;SDS011;11973;52.098;7.582;2022-12-07T14:26:04;2.85;;;1.38;;
23590;SDS011;11973;52.098;7.582;2022-12-07T14:28:43;5.75;;;1.50;;
23590;SDS011;11973;52.098;7.582;2022-12-07T14:31:13;3.60;;;1.77;;
23590;SDS011;11973;52.098;7.582;2022-12-07T14:33:45;1.58;;;1.48;;
23590;SDS011;11973;52.098;7.582;2022-12-07T14:36:11;3.90;;;1.60;;
23590;SDS011;11973;52.098;7.582;2022-12-07T14:38:38;2.28;;;1.60;;
23590;SDS011;11973;52.098;7.582;2022-12-07T14:41:04;5.28;;;1.98;;
23590;SDS011;11973;52.098;7.582;2022-12-07T14:43:56;4.60;;;1.58;;
23590;SDS011;11973;52.098;7.582;2022-12-07T14:46:21;5.32;;;1.48;;
23590;SDS011;11973;52.098;7.582;2022-12-07T14:48:47;2.85;;;1.45;;
23590;SDS011;11973;52.098;7.582;2022-12-07T14:51:13;2.08;;;1.58;;
23590;SDS011;11973;52.098;7.582;2022-12-07T14:53:39;7.85;;;1.70;;
23590;SDS011;11973;52.098;7.582;2022-12-07T14:56:09;1.33;;;1.25;;
23590;SDS011;11973;52.098;7.582;2022-12-07T14:58:35;2.40;;;1.10;;
23590;SDS011;11973;52.098;7.582;2022-12-07T15:01:00;4.47;;;1.05;;
23590;SDS011;11973;52.098;7.582;2022-12-07T15:03:26;3.40;;;1.15;;
23590;SDS011;11973;52.098;7.582;2022-12-07T15:05:52;1.33;;;1.20;;
23590;SDS011;11973;52.098;7.582;2022-12-07T15:08:17;2.00;;;1.10;;
23590;SDS011;11973;52.098;7.582;2022-12-07T15:10:43;1.77;;;1.00;;
23590;SDS011;11973;52.098;7.582;2022-12-07T15:13:09;4.43;;;0.90;;
23590;SDS011;11973;52.098;7.582;2022-12-07T15:15:54;3.90;;;1.27;;
23590;SDS011;11973;52.098;7.582;2022-12-07T15:18:20;3.22;;;0.98;;
23590;SDS011;11973;52.098;7.582;2022-12-07T15:20:47;2.22;;;1.00;;
23590;SDS011;11973;52.098;7.582;2022-12-07T15:23:13;4.45;;;1.05;;
23590;SDS011;11973;52.098;7.582;2022-12-07T15:25:46;3.17;;;1.30;;
23590;SDS011;11973;52.098;7.582;2022-12-07T15:28:13;3.50;;;1.15;;
23590;SDS011;11973;52.098;7.582;2022-12-07T15:30:43;4.55;;;1.10;;
23590;SDS011;11973;52.098;7.582;2022-12-07T15:33:10;3.33;;;1.00;;
23590;SDS011;11973;52.098;7.582;2022-12-07T15:35:41;5.07;;;1.42;;
23590;SDS011;11973;52.098;7.582;2022-12-07T15:38:10;3.58;;;1.60;;
23590;SDS011;11973;52.098;7.582;2022-12-07T15:40:36;6.43;;;2.22;;
23590;SDS011;11973;52.098;7.582;2022-12-07T15:43:02;2.22;;;1.88;;
23590;SDS011;11973;52.098;7.582;2022-12-07T15:45:28;2.10;;;1.25;;
23590;SDS011;11973;52.098;7.582;2022-12-07T15:47:54;6.30;;;1.33;;
23590;SDS011;11973;52.098;7.582;2022-12-07T15:50:20;6.07;;;1.60;;
23590;SDS011;11973;52.098;7.582;2022-12-07T15:52:47;3.22;;;1.23;;
23590;SDS011;11973;52.098;7.582;2022-12-07T15:55:13;3.75;;;1.38;;
23590;SDS011;11973;52.098;7.582;2022-12-07T15:57:39;4.88;;;1.48;;
23590;SDS011;11973;52.098;7.582;2022-12-07T16:00:07;4.88;;;1.50;;
23590;SDS011;11973;52.098;7.582;2022-12-07T16:02:34;2.42;;;1.42;;
23590;SDS011;11973;52.098;7.582;2022-12-07T16:05:01;3.47;;;1.52;;
23590;SDS011;11973;52.098;7.582;2022-12-07T16:07:27;4.97;;;2.50;;
23590;SDS011;11973;52.098;7.582;2022-12-07T16:09:53;4.00;;;2.47;;
23590;SDS011;11973;52.098;7.582;2022-12-07T16:12:18;6.18;;;1.83;;
23590;SDS011;11973;52.098;7.582;2022-12-07T16:14:44;11.50;;;9.68;;
23590;SDS011;11973;52.098;7.582;2022-12-07T16:17:10;4.68;;;2.28;;
23590;SDS011;11973;52.098;7.582;2022-12-07T16:19:36;6.05;;;2.88;;
23590;SDS011;11973;52.098;7.582;2022-12-07T16:22:02;2.65;;;2.40;;
23590;SDS011;11973;52.098;7.582;2022-12-07T16:24:29;20.35;;;18.05;;
23590;SDS011;11973;52.098;7.582;2022-12-07T16:26:55;15.32;;;13.23;;
23590;SDS011;11973;52.098;7.582;2022-12-07T16:29:21;5.90;;;2.30;;
23590;SDS011;11973;52.098;7.582;2022-12-07T16:31:47;8.43;;;6.03;;
23590;SDS011;11973;52.098;7.582;2022-12-07T16:34:13;3.28;;;2.17;;
23590;SDS011;11973;52.098;7.582;2022-12-07T16:36:39;20.77;;;14.45;;
23590;SDS011;11973;52.098;7.582;2022-12-07T16:39:05;12.25;;;9.38;;
23590;SDS011;11973;52.098;7.582;2022-12-07T16:41:31;6.22;;;2.97;;
23590;SDS011;11973;52.098;7.582;2022-12-07T16:43:58;3.55;;;3.03;;
23590;SDS011;11973;52.098;7.582;2022-12-07T16:46:29;3.58;;;3.25;;
23590;SDS011;11973;52.098;7.582;2022-12-07T16:48:56;6.07;;;4.22;;
23590;SDS011;11973;52.098;7.582;2022-12-07T16:51:22;7.97;;;3.83;;
23590;SDS011;11973;52.098;7.582;2022-12-07T16:53:47;4.45;;;3.80;;
23590;SDS011;11973;52.098;7.582;2022-12-07T16:56:14;4.15;;;2.97;;
23590;SDS011;11973;52.098;7.582;2022-12-07T16:58:41;7.65;;;3.45;;
23590;SDS011;11973;52.098;7.582;2022-12-07T17:01:08;5.07;;;4.00;;
23590;SDS011;11973;52.098;7.582;2022-12-07T17:03:35;5.85;;;3.92;;
23590;SDS011;11973;52.098;7.582;2022-12-07T17:06:01;4.68;;;3.90;;
23590;SDS011;11973;52.098;7.582;2022-12-07T17:08:26;6.65;;;3.92;;
23590;SDS011;11973;52.098;7.582;2022-12-07T17:10:52;4.97;;;4.47;;
23590;SDS011;11973;52.098;7.582;2022-12-07T17:13:18;8.88;;;3.97;;
23590;SDS011;11973;52.098;7.582;2022-12-07T17:16:03;7.10;;;4.68;;
23590;SDS011;11973;52.098;7.582;2022-12-07T17:18:31;4.90;;;4.18;;
23590;SDS011;11973;52.098;7.582;2022-12-07T17:21:06;5.95;;;4.13;;
23590;SDS011;11973;52.098;7.582;2022-12-07T17:23:34;11.10;;;4.75;;
23590;SDS011;11973;52.098;7.582;2022-12-07T17:26:08;9.15;;;4.20;;
23590;SDS011;11973;52.098;7.582;2022-12-07T17:28:36;6.45;;;4.10;;
23590;SDS011;11973;52.098;7.582;2022-12-07T17:31:06;8.73;;;5.07;;
23590;SDS011;11973;52.098;7.582;2022-12-07T17:33:33;6.85;;;4.43;;
23590;SDS011;11973;52.098;7.582;2022-12-07T17:36:00;7.97;;;4.50;;
23590;SDS011;11973;52.098;7.582;2022-12-07T17:38:27;8.05;;;4.78;;
23590;SDS011;11973;52.098;7.582;2022-12-07T17:40:53;6.93;;;4.63;;
23590;SDS011;11973;52.098;7.582;2022-12-07T17:43:19;6.57;;;4.13;;
23590;SDS011;11973;52.098;7.582;2022-12-07T17:45:45;5.55;;;5.05;;
23590;SDS011;11973;52.098;7.582;2022-12-07T17:48:11;6.28;;;5.47;;
23590;SDS011;11973;52.098;7.582;2022-12-07T17:50:38;10.80;;;5.25;;
23590;SDS011;11973;52.098;7.582;2022-12-07T17:53:39;8.32;;;5.60;;
23590;SDS011;11973;52.098;7.582;2022-12-07T17:56:05;10.88;;;6.07;;
23590;SDS011;11973;52.098;7.582;2022-12-07T17:58:31;8.02;;;6.18;;
23590;SDS011;11973;52.098;7.582;2022-12-07T18:00:56;10.35;;;5.88;;
23590;SDS011;11973;52.098;7.582;2022-12-07T18:03:22;9.05;;;6.18;;
23590;SDS011;11973;52.098;7.582;2022-12-07T18:05:48;7.78;;;6.20;;